Time;durP1;ratioP1;P1;durP2;ratioP2;P2;SDS_P1;SDS_P2;PMS_P1;PMS_P2;Temp;Humidity;BMP_temperature;BMP_pressure;BME280_temperature;BME280_humidity;BME280_pressure;Samples;Min_cycle;Max_cycle;Signal;HPM_P1;HPM_P2
2023/09/06 00:00:45;;;;;;;;;;;21.30;92.60;;;;;;5008724;28;20050;-74
2023/09/06 00:03:11;;;;;;;;;;;21.30;92.50;;;;;;5009367;28;19914;-74
2023/09/06 00:05:41;;;;;;;;;;;21.20;92.60;;;;;;5007265;28;20421;-74
2023/09/06 00:08:10;;;;;;;;;;;21.20;92.50;;;;;;5007256;28;20024;-74
2023/09/06 00:10:39;;;;;;;;;;;21.20;92.70;;;;;;5008216;28;20024;-74
2023/09/06 00:13:09;;;;;;;;;;;21.20;92.50;;;;;;5007585;28;19999;-74
2023/09/06 00:15:35;;;;;;;;;;;21.10;92.60;;;;;;5007227;28;19914;-74
2023/09/06 00:18:00;;;;;;;;;;;21.10;92.60;;;;;;5009062;28;19920;-74
2023/09/06 00:20:26;;;;;;;;;;;21.10;92.80;;;;;;5007204;28;19921;-74
2023/09/06 00:22:55;;;;;;;;;;;21.00;92.90;;;;;;5008613;28;19925;-74
2023/09/06 00:25:21;;;;;;;;;;;21.00;92.90;;;;;;5005041;28;19913;-74
2023/09/06 00:27:47;;;;;;;;;;;21.00;92.80;;;;;;5008354;28;19914;-74
2023/09/06 00:30:12;;;;;;;;;;;21.00;92.90;;;;;;5008752;28;19921;-74
2023/09/06 00:32:38;;;;;;;;;;;20.90;92.90;;;;;;5008183;28;19909;-74
2023/09/06 00:35:04;;;;;;;;;;;20.90;92.80;;;;;;5008593;28;20051;-74
2023/09/06 00:37:41;;;;;;;;;;;20.90;92.90;;;;;;5007858;28;19914;-74
2023/09/06 00:40:18;;;;;;;;;;;20.90;92.90;;;;;;5008140;28;19921;-74
2023/09/06 00:43:02;;;;;;;;;;;20.80;93.10;;;;;;5007901;28;19914;-74
2023/09/06 00:45:29;;;;;;;;;;;20.80;93.20;;;;;;5007951;28;20397;-74
2023/09/06 00:47:58;;;;;;;;;;;20.80;93.20;;;;;;5006849;28;20001;-74
2023/09/06 00:50:26;;;;;;;;;;;20.70;93.30;;;;;;5004657;28;20314;-74
2023/09/06 00:52:53;;;;;;;;;;;20.70;93.10;;;;;;5005406;28;20533;-74
2023/09/06 00:55:19;;;;;;;;;;;20.70;93.00;;;;;;5008128;28;19937;-74
2023/09/06 00:57:45;;;;;;;;;;;20.70;93.20;;;;;;5007695;28;19925;-74
2023/09/06 01:00:15;;;;;;;;;;;20.60;93.20;;;;;;5006629;28;19918;-74
2023/09/06 01:02:41;;;;;;;;;;;20.60;93.40;;;;;;5007589;28;19927;-74
2023/09/06 01:05:06;;;;;;;;;;;20.60;93.40;;;;;;5006520;28;20301;-74
2023/09/06 01:07:34;;;;;;;;;;;20.50;93.40;;;;;;5005842;28;19921;-74
2023/09/06 01:10:01;;;;;;;;;;;20.60;93.60;;;;;;5007951;28;20029;-74
2023/09/06 01:12:28;;;;;;;;;;;20.50;93.40;;;;;;5005286;28;19937;-74
2023/09/06 01:14:53;;;;;;;;;;;20.50;93.60;;;;;;5007887;28;20532;-74
2023/09/06 01:17:19;;;;;;;;;;;20.50;93.60;;;;;;5008234;28;19914;-74
2023/09/06 01:19:47;;;;;;;;;;;20.40;93.40;;;;;;5007614;28;19917;-74
2023/09/06 01:22:31;;;;;;;;;;;20.40;93.50;;;;;;5007620;28;19913;-74
2023/09/06 01:24:57;;;;;;;;;;;20.40;93.70;;;;;;5004528;28;19914;-74
2023/09/06 01:27:22;;;;;;;;;;;20.40;93.60;;;;;;5007565;28;19917;-74
2023/09/06 01:29:48;;;;;;;;;;;20.30;93.60;;;;;;5006215;28;20271;-74
2023/09/06 01:32:14;;;;;;;;;;;20.30;93.80;;;;;;4998177;28;19979;-74
2023/09/06 01:34:39;;;;;;;;;;;20.30;93.80;;;;;;5007225;28;19920;-74
2023/09/06 01:37:05;;;;;;;;;;;20.20;93.90;;;;;;5007777;28;19965;-74
2023/09/06 01:39:30;;;;;;;;;;;20.20;93.90;;;;;;5007167;28;20008;-74
2023/09/06 01:41:56;;;;;;;;;;;20.20;93.90;;;;;;5007344;28;19913;-74
2023/09/06 01:44:21;;;;;;;;;;;20.20;93.80;;;;;;5007295;28;19909;-74
2023/09/06 01:46:47;;;;;;;;;;;20.10;94.00;;;;;;5007492;28;20305;-74
2023/09/06 01:49:12;;;;;;;;;;;20.10;93.80;;;;;;5007692;28;20017;-74
2023/09/06 01:51:38;;;;;;;;;;;20.10;94.10;;;;;;5007258;28;19909;-74
2023/09/06 01:54:04;;;;;;;;;;;20.10;94.00;;;;;;5006158;28;19970;-74
2023/09/06 01:56:30;;;;;;;;;;;20.10;94.10;;;;;;5006857;28;20004;-74
2023/09/06 01:58:56;;;;;;;;;;;20.00;94.10;;;;;;5007344;28;19941;-75
2023/09/06 02:01:21;;;;;;;;;;;20.00;94.30;;;;;;5007850;28;20360;-74
2023/09/06 02:03:47;;;;;;;;;;;20.00;94.10;;;;;;5009759;28;19947;-75
2023/09/06 02:06:12;;;;;;;;;;;19.90;94.10;;;;;;5009391;28;19956;-74
2023/09/06 02:08:40;;;;;;;;;;;19.90;94.20;;;;;;5010843;28;19914;-74
2023/09/06 02:11:09;;;;;;;;;;;20.00;94.20;;;;;;5009833;28;19960;-74
2023/09/06 02:13:34;;;;;;;;;;;19.90;94.50;;;;;;5009500;28;20438;-74
2023/09/06 02:16:00;;;;;;;;;;;19.90;94.50;;;;;;5011209;28;19953;-74
2023/09/06 02:18:26;;;;;;;;;;;19.90;94.40;;;;;;5010814;28;19965;-74
2023/09/06 02:20:54;;;;;;;;;;;19.80;94.50;;;;;;5008870;28;19925;-74
2023/09/06 02:23:19;;;;;;;;;;;19.80;94.50;;;;;;5010826;28;19909;-74
2023/09/06 02:25:45;;;;;;;;;;;19.80;94.50;;;;;;5009401;28;20251;-74
2023/09/06 02:28:10;;;;;;;;;;;19.80;94.50;;;;;;5010867;28;19917;-74
2023/09/06 02:30:41;;;;;;;;;;;19.70;94.40;;;;;;5010144;28;20358;-74
2023/09/06 02:33:08;;;;;;;;;;;19.70;94.50;;;;;;5010784;28;20387;-74
2023/09/06 02:35:35;;;;;;;;;;;19.70;94.70;;;;;;5010134;28;19917;-74
2023/09/06 02:38:00;;;;;;;;;;;19.70;94.70;;;;;;5010668;28;20424;-75
2023/09/06 02:40:26;;;;;;;;;;;19.60;94.50;;;;;;5010316;28;19913;-74
2023/09/06 02:42:53;;;;;;;;;;;19.60;94.70;;;;;;5009040;28;19913;-74
2023/09/06 02:45:22;;;;;;;;;;;19.60;94.70;;;;;;5010477;28;19990;-74
2023/09/06 02:47:49;;;;;;;;;;;19.60;94.80;;;;;;5009957;28;19926;-74
2023/09/06 02:50:16;;;;;;;;;;;19.60;94.80;;;;;;5009159;28;20000;-74
2023/09/06 02:52:44;;;;;;;;;;;19.60;94.90;;;;;;5009555;28;20636;-74
2023/09/06 02:55:13;;;;;;;;;;;19.50;94.80;;;;;;5010468;28;19949;-74
2023/09/06 02:57:41;;;;;;;;;;;19.50;94.80;;;;;;5009994;28;19909;-74
2023/09/06 03:00:25;;;;;;;;;;;19.50;94.80;;;;;;5010318;28;19920;-74
2023/09/06 03:02:53;;;;;;;;;;;19.50;94.70;;;;;;5010006;28;20509;-74
2023/09/06 03:05:20;;;;;;;;;;;19.50;94.90;;;;;;5008837;28;19921;-74
2023/09/06 03:07:48;;;;;;;;;;;19.40;94.80;;;;;;5007748;28;19918;-74
2023/09/06 03:10:19;;;;;;;;;;;19.40;95.00;;;;;;5009895;28;19917;-74
2023/09/06 03:12:46;;;;;;;;;;;19.40;94.90;;;;;;5009544;28;20696;-74
2023/09/06 03:15:13;;;;;;;;;;;19.40;95.00;;;;;;5008419;28;20294;-74
2023/09/06 03:17:39;;;;;;;;;;;19.30;95.00;;;;;;5009645;28;19913;-74
2023/09/06 03:20:18;;;;;;;;;;;19.30;94.90;;;;;;5008395;28;20647;-74
2023/09/06 03:22:47;;;;;;;;;;;19.30;94.90;;;;;;5008081;28;19913;-74
2023/09/06 03:25:14;;;;;;;;;;;19.30;95.00;;;;;;5009680;28;19914;-74
2023/09/06 03:27:41;;;;;;;;;;;19.30;95.00;;;;;;5009381;28;19955;-74
2023/09/06 03:30:08;;;;;;;;;;;19.30;95.00;;;;;;5009820;28;19913;-74
2023/09/06 03:32:33;;;;;;;;;;;19.20;95.10;;;;;;5009293;28;19913;-74
2023/09/06 03:34:59;;;;;;;;;;;19.20;95.20;;;;;;5008347;28;20318;-74
2023/09/06 03:37:24;;;;;;;;;;;19.20;95.10;;;;;;5008162;28;20017;-74
2023/09/06 03:39:53;;;;;;;;;;;19.20;95.10;;;;;;5007031;28;19920;-74
2023/09/06 03:42:19;;;;;;;;;;;19.10;94.90;;;;;;5009335;28;19914;-74
2023/09/06 03:44:46;;;;;;;;;;;19.20;95.20;;;;;;5009210;28;20017;-74
2023/09/06 03:47:15;;;;;;;;;;;19.10;95.00;;;;;;5009525;28;19926;-74
2023/09/06 03:49:41;;;;;;;;;;;19.10;95.10;;;;;;5009057;28;20775;-74
2023/09/06 03:52:07;;;;;;;;;;;19.10;95.10;;;;;;5007384;28;20020;-74
2023/09/06 03:54:34;;;;;;;;;;;19.00;95.00;;;;;;5008846;28;19913;-74
2023/09/06 03:57:07;;;;;;;;;;;19.10;95.20;;;;;;5009216;28;19914;-74
2023/09/06 03:59:35;;;;;;;;;;;19.00;95.10;;;;;;5007450;28;19913;-74
2023/09/06 04:02:01;;;;;;;;;;;19.00;95.20;;;;;;5007541;28;19909;-74
2023/09/06 04:04:28;;;;;;;;;;;19.00;95.20;;;;;;5009143;28;19945;-74
2023/09/06 04:06:54;;;;;;;;;;;19.00;95.20;;;;;;5000742;28;19918;-74
2023/09/06 04:09:27;;;;;;;;;;;19.00;95.20;;;;;;5008915;28;19921;-74
2023/09/06 04:11:53;;;;;;;;;;;18.90;95.20;;;;;;5008111;28;19921;-74
2023/09/06 04:14:18;;;;;;;;;;;18.90;95.30;;;;;;5007764;28;19913;-74
2023/09/06 04:16:44;;;;;;;;;;;18.90;95.30;;;;;;5008635;28;19914;-74
2023/09/06 04:19:09;;;;;;;;;;;18.90;95.30;;;;;;5008844;28;19913;-74
2023/09/06 04:21:37;;;;;;;;;;;18.80;95.30;;;;;;5006785;28;19913;-74
2023/09/06 04:24:03;;;;;;;;;;;18.80;95.30;;;;;;5007864;28;20014;-74
2023/09/06 04:26:29;;;;;;;;;;;18.80;95.30;;;;;;5008450;28;19917;-74
2023/09/06 04:28:54;;;;;;;;;;;18.80;95.30;;;;;;5008059;28;19924;-74
2023/09/06 04:31:20;;;;;;;;;;;18.80;95.30;;;;;;5008048;28;19918;-74
2023/09/06 04:33:46;;;;;;;;;;;18.80;95.40;;;;;;5007001;28;19920;-74
2023/09/06 04:36:11;;;;;;;;;;;18.80;95.30;;;;;;5008690;28;19917;-74
2023/09/06 04:38:37;;;;;;;;;;;18.70;95.30;;;;;;5007921;28;19921;-74
2023/09/06 04:41:02;;;;;;;;;;;18.70;95.40;;;;;;5008328;28;19914;-74
2023/09/06 04:43:28;;;;;;;;;;;18.70;95.30;;;;;;5008365;28;19909;-74
2023/09/06 04:45:54;;;;;;;;;;;18.70;95.40;;;;;;5000117;28;20400;-74
2023/09/06 04:48:23;;;;;;;;;;;18.70;95.40;;;;;;5007975;28;19924;-74
2023/09/06 04:50:49;;;;;;;;;;;18.70;95.40;;;;;;5007876;28;19922;-74
2023/09/06 04:53:18;;;;;;;;;;;18.60;95.40;;;;;;5008349;28;20321;-74
2023/09/06 04:55:44;;;;;;;;;;;18.60;95.40;;;;;;5008111;28;19968;-74
2023/09/06 04:58:10;;;;;;;;;;;18.60;95.40;;;;;;5008176;28;19955;-74
2023/09/06 05:00:38;;;;;;;;;;;18.60;95.40;;;;;;5006355;28;19969;-74
2023/09/06 05:03:08;;;;;;;;;;;18.60;95.40;;;;;;5008104;28;19910;-74
2023/09/06 05:05:35;;;;;;;;;;;18.60;95.40;;;;;;5007789;28;19920;-74
2023/09/06 05:08:00;;;;;;;;;;;18.60;95.40;;;;;;5007535;28;19918;-75
2023/09/06 05:10:26;;;;;;;;;;;18.60;95.40;;;;;;5007992;28;20267;-74
2023/09/06 05:12:51;;;;;;;;;;;18.60;95.50;;;;;;5007367;28;19940;-74
2023/09/06 05:15:17;;;;;;;;;;;18.50;95.40;;;;;;5008297;28;19917;-74
2023/09/06 05:17:42;;;;;;;;;;;18.50;95.40;;;;;;5008002;28;19996;-74
2023/09/06 05:20:28;;;;;;;;;;;18.50;95.40;;;;;;5008358;28;19909;-74
2023/09/06 05:22:55;;;;;;;;;;;18.50;95.40;;;;;;5007565;28;19988;-74
2023/09/06 05:25:21;;;;;;;;;;;18.50;95.50;;;;;;5006629;28;19914;-74
2023/09/06 05:27:46;;;;;;;;;;;18.50;95.40;;;;;;5006857;28;19925;-74
2023/09/06 05:30:12;;;;;;;;;;;18.50;95.40;;;;;;5007768;28;19921;-74
2023/09/06 05:32:37;;;;;;;;;;;18.50;95.40;;;;;;5007232;28;19920;-74
2023/09/06 05:35:03;;;;;;;;;;;18.50;95.40;;;;;;5008019;28;19996;-74
2023/09/06 05:37:29;;;;;;;;;;;18.50;95.50;;;;;;5007367;28;19909;-74
2023/09/06 05:39:55;;;;;;;;;;;18.40;95.40;;;;;;5003781;28;19960;-74
2023/09/06 05:42:20;;;;;;;;;;;18.50;95.50;;;;;;5011184;28;19964;-74
2023/09/06 05:44:46;;;;;;;;;;;18.40;95.50;;;;;;5011381;28;20004;-74
2023/09/06 05:47:11;;;;;;;;;;;18.40;95.40;;;;;;5011254;28;19922;-74
2023/09/06 05:49:37;;;;;;;;;;;18.40;95.50;;;;;;5011255;28;20008;-74
2023/09/06 05:52:02;;;;;;;;;;;18.40;95.50;;;;;;5011456;28;20295;-74
2023/09/06 05:54:28;;;;;;;;;;;18.40;95.50;;;;;;5011524;28;19917;-74
2023/09/06 05:56:53;;;;;;;;;;;18.40;95.50;;;;;;5011083;28;19917;-74
2023/09/06 05:59:19;;;;;;;;;;;18.40;95.50;;;;;;5011018;28;19949;-74
2023/09/06 06:01:45;;;;;;;;;;;18.40;95.50;;;;;;5010866;28;19971;-74
2023/09/06 06:04:11;;;;;;;;;;;18.40;95.50;;;;;;5011464;28;19920;-74
2023/09/06 06:06:37;;;;;;;;;;;18.40;95.50;;;;;;5008711;28;20389;-74
2023/09/06 06:09:04;;;;;;;;;;;18.40;95.50;;;;;;5010277;28;19960;-74
2023/09/06 06:11:29;;;;;;;;;;;18.40;95.50;;;;;;5011030;28;19914;-74
2023/09/06 06:13:55;;;;;;;;;;;18.40;95.60;;;;;;5003901;28;19921;-74
2023/09/06 06:16:20;;;;;;;;;;;18.40;95.50;;;;;;5009946;28;20351;-74
2023/09/06 06:18:48;;;;;;;;;;;18.40;95.50;;;;;;5010949;28;19919;-74
2023/09/06 06:21:13;;;;;;;;;;;18.40;95.60;;;;;;5010951;28;19910;-74
2023/09/06 06:23:43;;;;;;;;;;;18.30;95.50;;;;;;5010669;28;19919;-74
2023/09/06 06:26:09;;;;;;;;;;;18.30;95.40;;;;;;5010702;28;20570;-74
2023/09/06 06:28:34;;;;;;;;;;;18.30;95.40;;;;;;5010487;28;19917;-74
2023/09/06 06:31:00;;;;;;;;;;;18.40;95.50;;;;;;5010767;28;19920;-74
2023/09/06 06:33:25;;;;;;;;;;;18.30;95.50;;;;;;5011071;28;20482;-74
2023/09/06 06:35:51;;;;;;;;;;;18.30;95.40;;;;;;5010881;28;19913;-74
2023/09/06 06:38:16;;;;;;;;;;;18.40;95.40;;;;;;5010869;28;19925;-74
2023/09/06 06:40:42;;;;;;;;;;;18.40;95.30;;;;;;5010325;28;19921;-73
2023/09/06 06:43:07;;;;;;;;;;;18.40;95.30;;;;;;5010573;28;19914;-74
2023/09/06 06:45:33;;;;;;;;;;;18.40;95.40;;;;;;5010409;28;19964;-73
2023/09/06 06:47:58;;;;;;;;;;;18.40;95.30;;;;;;5010096;28;19918;-73
2023/09/06 06:50:24;;;;;;;;;;;18.40;95.40;;;;;;5010461;28;20008;-74
2023/09/06 06:52:50;;;;;;;;;;;18.40;95.20;;;;;;5010280;28;19921;-74
2023/09/06 06:55:15;;;;;;;;;;;18.40;95.10;;;;;;5010369;28;19930;-74
2023/09/06 06:57:41;;;;;;;;;;;18.40;95.20;;;;;;5010244;28;20590;-74
2023/09/06 07:00:11;;;;;;;;;;;18.40;95.10;;;;;;5010552;28;19920;-73
2023/09/06 07:02:37;;;;;;;;;;;18.40;95.10;;;;;;5010062;28;20492;-74
2023/09/06 07:05:03;;;;;;;;;;;18.40;95.10;;;;;;5010210;28;19918;-74
2023/09/06 07:07:28;;;;;;;;;;;18.40;95.00;;;;;;5009943;28;19968;-73
2023/09/06 07:09:54;;;;;;;;;;;18.40;95.00;;;;;;5010030;28;19910;-73
2023/09/06 07:12:19;;;;;;;;;;;18.50;95.00;;;;;;5010048;28;19964;-73
2023/09/06 07:14:45;;;;;;;;;;;18.40;95.00;;;;;;5010043;28;19913;-74
2023/09/06 07:17:10;;;;;;;;;;;18.40;94.90;;;;;;5010168;28;19913;-74
2023/09/06 07:19:36;;;;;;;;;;;18.40;94.90;;;;;;5009811;28;19955;-74
2023/09/06 07:22:03;;;;;;;;;;;18.40;94.90;;;;;;5009922;28;19917;-73
2023/09/06 07:24:28;;;;;;;;;;;18.40;94.90;;;;;;5009862;28;20370;-73
2023/09/06 07:26:54;;;;;;;;;;;18.50;94.90;;;;;;5009920;28;19914;-74
2023/09/06 07:29:19;;;;;;;;;;;18.50;94.90;;;;;;5010062;28;20583;-73
2023/09/06 07:31:45;;;;;;;;;;;18.50;94.80;;;;;;5009362;28;20432;-73
2023/09/06 07:34:11;;;;;;;;;;;18.50;94.80;;;;;;5009505;28;19921;-73
2023/09/06 07:36:36;;;;;;;;;;;18.50;94.70;;;;;;5008138;28;20446;-73
2023/09/06 07:39:02;;;;;;;;;;;18.60;94.70;;;;;;5009523;28;19918;-73
2023/09/06 07:41:28;;;;;;;;;;;18.60;94.60;;;;;;5007940;28;19959;-74
2023/09/06 07:43:53;;;;;;;;;;;18.60;94.60;;;;;;5009214;28;20004;-73
2023/09/06 07:46:19;;;;;;;;;;;18.60;94.60;;;;;;5009856;28;19919;-73
2023/09/06 07:48:44;;;;;;;;;;;18.60;94.50;;;;;;5009262;28;19922;-73
2023/09/06 07:51:12;;;;;;;;;;;18.70;94.50;;;;;;5008981;28;19924;-73
2023/09/06 07:53:37;;;;;;;;;;;18.70;94.40;;;;;;5008935;28;19914;-74
2023/09/06 07:56:05;;;;;;;;;;;18.70;94.30;;;;;;5008052;28;19975;-74
2023/09/06 07:58:31;;;;;;;;;;;18.80;94.30;;;;;;5008947;28;19932;-73
2023/09/06 08:00:57;;;;;;;;;;;18.80;94.30;;;;;;5007373;28;20382;-73
2023/09/06 08:03:23;;;;;;;;;;;18.80;94.30;;;;;;5007549;28;19917;-73
2023/09/06 08:05:48;;;;;;;;;;;18.80;94.20;;;;;;5008422;28;19944;-73
2023/09/06 08:08:14;;;;;;;;;;;18.90;94.20;;;;;;5007417;28;19917;-74
2023/09/06 08:10:39;;;;;;;;;;;18.90;94.10;;;;;;5008370;28;19913;-74
2023/09/06 08:13:05;;;;;;;;;;;18.90;94.10;;;;;;5009218;28;19968;-73
2023/09/06 08:15:31;;;;;;;;;;;19.00;94.00;;;;;;5009414;28;19909;-73
2023/09/06 08:17:57;;;;;;;;;;;19.00;94.00;;;;;;5009100;28;20624;-74
2023/09/06 08:20:22;;;;;;;;;;;19.00;93.90;;;;;;5008854;28;19939;-73
2023/09/06 08:22:48;;;;;;;;;;;19.00;93.90;;;;;;5007168;28;19972;-73
2023/09/06 08:25:14;;;;;;;;;;;19.10;94.00;;;;;;5008782;28;20012;-73
2023/09/06 08:27:40;;;;;;;;;;;19.10;93.90;;;;;;5008407;28;19967;-73
2023/09/06 08:30:10;;;;;;;;;;;19.20;93.90;;;;;;5007629;28;20652;-73
2023/09/06 08:32:36;;;;;;;;;;;19.20;93.80;;;;;;5006678;28;20338;-73
2023/09/06 08:35:02;;;;;;;;;;;19.20;93.80;;;;;;5008715;28;19921;-73
2023/09/06 08:37:30;;;;;;;;;;;19.30;93.70;;;;;;5008587;28;20056;-73
2023/09/06 08:39:56;;;;;;;;;;;19.40;93.70;;;;;;5008110;28;19940;-73
2023/09/06 08:42:22;;;;;;;;;;;19.40;93.70;;;;;;5008172;28;19917;-74
2023/09/06 08:44:48;;;;;;;;;;;19.50;93.60;;;;;;5008228;28;20359;-73
2023/09/06 08:47:17;;;;;;;;;;;19.50;93.50;;;;;;5007451;28;19928;-73
2023/09/06 08:49:43;;;;;;;;;;;19.50;93.30;;;;;;5008391;28;19929;-73
2023/09/06 08:52:10;;;;;;;;;;;19.60;93.30;;;;;;5008315;28;19913;-73
2023/09/06 08:54:36;;;;;;;;;;;19.70;93.30;;;;;;5008170;28;19913;-73
2023/09/06 08:57:02;;;;;;;;;;;19.70;93.20;;;;;;5008659;28;19918;-73
2023/09/06 08:59:31;;;;;;;;;;;19.80;93.10;;;;;;5008308;28;20358;-73
2023/09/06 09:01:58;;;;;;;;;;;19.80;93.10;;;;;;5008134;28;19988;-73
2023/09/06 09:04:23;;;;;;;;;;;19.80;93.00;;;;;;5008527;28;19988;-73
2023/09/06 09:06:49;;;;;;;;;;;19.80;93.00;;;;;;5005939;28;19914;-73
2023/09/06 09:09:16;;;;;;;;;;;19.90;93.00;;;;;;5008015;28;19924;-73
2023/09/06 09:11:51;;;;;;;;;;;19.90;93.00;;;;;;5007424;28;19913;-73
2023/09/06 09:14:26;;;;;;;;;;;19.90;93.00;;;;;;5008243;28;19972;-73
2023/09/06 09:16:54;;;;;;;;;;;20.00;93.00;;;;;;5008336;28;20242;-73
2023/09/06 09:19:21;;;;;;;;;;;20.00;92.80;;;;;;5008464;28;19917;-74
2023/09/06 09:21:46;;;;;;;;;;;20.10;92.90;;;;;;5007935;28;19916;-73
2023/09/06 09:24:12;;;;;;;;;;;20.10;92.80;;;;;;5007217;28;19918;-73
2023/09/06 09:26:41;;;;;;;;;;;20.10;92.80;;;;;;5008014;28;19913;-73
2023/09/06 09:29:11;;;;;;;;;;;20.20;92.80;;;;;;5006187;28;20683;-73
2023/09/06 09:31:37;;;;;;;;;;;20.20;92.70;;;;;;5007873;28;19921;-73
2023/09/06 09:34:02;;;;;;;;;;;20.30;92.70;;;;;;5008351;28;19917;-73
2023/09/06 09:36:34;;;;;;;;;;;20.30;92.70;;;;;;5008043;28;20059;-73
2023/09/06 09:39:05;;;;;;;;;;;20.30;92.60;;;;;;5006767;28;19967;-73
2023/09/06 09:41:31;;;;;;;;;;;20.40;92.70;;;;;;5006775;28;20007;-73
2023/09/06 09:44:13;;;;;;;;;;;20.40;92.60;;;;;;5006326;28;20581;-73
2023/09/06 09:46:39;;;;;;;;;;;20.40;92.50;;;;;;5007869;28;19921;-73
2023/09/06 09:49:07;;;;;;;;;;;20.50;92.50;;;;;;5006776;28;19921;-73
2023/09/06 09:51:33;;;;;;;;;;;20.50;92.50;;;;;;5008111;28;20026;-73
2023/09/06 09:53:59;;;;;;;;;;;20.50;92.40;;;;;;4999834;28;20366;-73
2023/09/06 09:56:25;;;;;;;;;;;20.60;92.50;;;;;;5008586;28;19944;-73
2023/09/06 09:58:51;;;;;;;;;;;20.60;92.50;;;;;;5007855;28;19954;-73
2023/09/06 10:01:17;;;;;;;;;;;20.70;92.40;;;;;;5008167;28;19988;-73
2023/09/06 10:03:44;;;;;;;;;;;20.70;92.40;;;;;;5006706;28;19914;-72
2023/09/06 10:06:11;;;;;;;;;;;20.70;92.30;;;;;;5006800;28;20315;-73
2023/09/06 10:08:37;;;;;;;;;;;20.80;92.40;;;;;;5001607;28;19917;-72
2023/09/06 10:11:05;;;;;;;;;;;20.80;92.30;;;;;;5003991;28;19917;-73
2023/09/06 10:13:32;;;;;;;;;;;20.90;92.20;;;;;;4997122;28;19922;-73
2023/09/06 10:15:58;;;;;;;;;;;20.90;92.20;;;;;;5003901;28;20370;-73
2023/09/06 10:18:23;;;;;;;;;;;21.00;92.20;;;;;;5000270;28;19920;-72
2023/09/06 10:20:49;;;;;;;;;;;21.00;92.10;;;;;;5004132;28;19910;-72
2023/09/06 10:23:17;;;;;;;;;;;21.10;92.10;;;;;;5007818;28;19917;-72
2023/09/06 10:25:47;;;;;;;;;;;21.20;92.10;;;;;;5009743;28;20330;-72
2023/09/06 10:28:13;;;;;;;;;;;21.20;92.00;;;;;;5004654;28;19917;-72
2023/09/06 10:30:44;;;;;;;;;;;21.30;92.00;;;;;;5009901;28;19913;-72
2023/09/06 10:33:31;;;;;;;;;;;21.40;92.20;;;;;;5011671;28;19910;-72
2023/09/06 10:35:57;;;;;;;;;;;21.40;92.20;;;;;;5003787;28;19910;-72
2023/09/06 10:38:22;;;;;;;;;;;21.50;92.20;;;;;;5005509;28;20307;-72
2023/09/06 10:40:51;;;;;;;;;;;21.60;92.30;;;;;;5011181;28;19921;-72
2023/09/06 10:43:20;;;;;;;;;;;21.70;92.40;;;;;;5011177;28;20004;-72
2023/09/06 10:45:55;;;;;;;;;;;21.80;92.40;;;;;;5011093;28;19917;-72
2023/09/06 10:48:21;;;;;;;;;;;21.80;92.50;;;;;;5011381;28;19917;-72
2023/09/06 10:51:04;;;;;;;;;;;21.90;92.50;;;;;;5010701;28;19924;-72
2023/09/06 10:53:36;;;;;;;;;;;22.00;92.40;;;;;;5009380;28;20374;-72
2023/09/06 10:56:02;;;;;;;;;;;22.20;92.60;;;;;;5003144;28;20008;-72
2023/09/06 10:58:29;;;;;;;;;;;22.20;92.60;;;;;;5010919;28;19920;-72
2023/09/06 11:01:14;;;;;;;;;;;22.40;92.70;;;;;;5010381;28;19918;-72
2023/09/06 11:03:41;;;;;;;;;;;22.50;92.70;;;;;;5010372;28;19999;-72
2023/09/06 11:06:06;;;;;;;;;;;22.60;92.70;;;;;;5010263;28;19941;-72
2023/09/06 11:08:33;;;;;;;;;;;22.70;92.60;;;;;;5010446;28;20396;-72
2023/09/06 11:10:59;;;;;;;;;;;22.80;92.70;;;;;;5008658;28;19913;-72
2023/09/06 11:13:28;;;;;;;;;;;22.90;92.70;;;;;;5010374;28;19914;-72
2023/09/06 11:15:53;;;;;;;;;;;23.00;92.80;;;;;;5010209;28;19909;-72
2023/09/06 11:18:19;;;;;;;;;;;23.10;92.80;;;;;;5010334;28;19921;-72
2023/09/06 11:20:48;;;;;;;;;;;23.20;92.90;;;;;;5009612;28;19939;-72
2023/09/06 11:23:14;;;;;;;;;;;23.40;92.70;;;;;;5008671;28;20409;-72
2023/09/06 11:25:39;;;;;;;;;;;23.50;92.70;;;;;;5009823;28;19949;-72
2023/09/06 11:28:16;;;;;;;;;;;23.60;92.90;;;;;;5007313;28;19917;-72
2023/09/06 11:30:44;;;;;;;;;;;23.70;92.90;;;;;;5009387;28;19914;-72
2023/09/06 11:33:11;;;;;;;;;;;23.80;93.00;;;;;;5009789;28;20000;-72
2023/09/06 11:35:38;;;;;;;;;;;23.90;93.00;;;;;;5008855;28;19909;-72
2023/09/06 11:38:04;;;;;;;;;;;24.00;93.00;;;;;;5007158;28;19909;-72
2023/09/06 11:40:33;;;;;;;;;;;24.10;93.10;;;;;;5010111;28;19913;-72
2023/09/06 11:43:00;;;;;;;;;;;24.20;93.40;;;;;;5009746;28;20060;-72
2023/09/06 11:45:26;;;;;;;;;;;24.30;93.20;;;;;;5008679;28;19913;-72
2023/09/06 11:47:59;;;;;;;;;;;24.40;92.90;;;;;;5008252;28;20367;-72
2023/09/06 11:50:24;;;;;;;;;;;24.50;93.10;;;;;;5008195;28;19909;-72
2023/09/06 11:52:51;;;;;;;;;;;24.60;93.10;;;;;;5009635;28;19916;-72
2023/09/06 11:55:18;;;;;;;;;;;24.70;93.20;;;;;;5009725;28;19920;-72
2023/09/06 11:57:51;;;;;;;;;;;24.80;93.20;;;;;;5009336;28;19914;-72
2023/09/06 12:00:35;;;;;;;;;;;24.90;93.30;;;;;;5009419;28;20000;-72
2023/09/06 12:03:07;;;;;;;;;;;25.00;93.30;;;;;;5002114;28;19919;-72
2023/09/06 12:05:35;;;;;;;;;;;25.10;93.20;;;;;;5008266;28;19918;-72
2023/09/06 12:08:01;;;;;;;;;;;25.20;93.30;;;;;;5008970;28;20433;-72
2023/09/06 12:10:28;;;;;;;;;;;25.30;93.40;;;;;;5009104;28;19913;-72
2023/09/06 12:12:56;;;;;;;;;;;25.30;93.40;;;;;;5007610;28;19909;-71
2023/09/06 12:15:24;;;;;;;;;;;25.40;93.30;;;;;;5009411;28;19910;-72
2023/09/06 12:17:50;;;;;;;;;;;25.50;93.40;;;;;;5007618;28;19914;-72
2023/09/06 12:20:18;;;;;;;;;;;25.50;93.30;;;;;;5009262;28;20378;-72
2023/09/06 12:22:44;;;;;;;;;;;25.60;93.30;;;;;;5007131;28;19910;-72
2023/09/06 12:25:11;;;;;;;;;;;25.60;93.40;;;;;;5008858;28;19913;-72
2023/09/06 12:27:37;;;;;;;;;;;25.70;93.60;;;;;;5008500;28;19924;-72
2023/09/06 12:30:03;;;;;;;;;;;25.80;93.50;;;;;;5009110;28;19914;-72
2023/09/06 12:32:31;;;;;;;;;;;25.80;93.50;;;;;;5008574;28;19914;-72
2023/09/06 12:34:57;;;;;;;;;;;25.90;93.50;;;;;;5008541;28;19928;-72
2023/09/06 12:37:24;;;;;;;;;;;25.90;93.60;;;;;;5008854;28;19913;-72
2023/09/06 12:39:50;;;;;;;;;;;26.00;93.60;;;;;;5008212;28;19996;-72
2023/09/06 12:42:15;;;;;;;;;;;26.00;93.70;;;;;;5007977;28;19917;-72
2023/09/06 12:44:41;;;;;;;;;;;26.10;93.60;;;;;;5007771;28;19917;-72
2023/09/06 12:47:06;;;;;;;;;;;26.20;93.60;;;;;;5007007;28;19952;-72
2023/09/06 12:49:32;;;;;;;;;;;26.20;93.90;;;;;;5008426;28;19925;-72
2023/09/06 12:52:00;;;;;;;;;;;26.20;93.60;;;;;;5006359;28;20036;-72
2023/09/06 12:54:26;;;;;;;;;;;26.30;93.60;;;;;;5008314;28;19913;-72
2023/09/06 12:56:51;;;;;;;;;;;26.40;93.60;;;;;;5006801;28;19917;-72
2023/09/06 12:59:16;;;;;;;;;;;26.40;93.70;;;;;;5008419;28;19913;-72
2023/09/06 13:01:42;;;;;;;;;;;26.50;93.80;;;;;;5007952;28;20347;-72
2023/09/06 13:04:08;;;;;;;;;;;26.50;93.70;;;;;;5006887;28;20604;-72
2023/09/06 13:06:33;;;;;;;;;;;26.50;93.60;;;;;;5006525;28;19910;-72
2023/09/06 13:08:58;;;;;;;;;;;26.60;93.70;;;;;;5006272;28;20399;-72
2023/09/06 13:11:24;;;;;;;;;;;26.60;93.60;;;;;;5008009;28;19920;-72
2023/09/06 13:13:50;;;;;;;;;;;26.70;93.60;;;;;;5007770;28;19913;-72
2023/09/06 13:16:15;;;;;;;;;;;26.80;93.70;;;;;;5008658;28;20286;-72
2023/09/06 13:18:41;;;;;;;;;;;26.80;93.60;;;;;;5007949;28;20301;-73
2023/09/06 13:21:06;;;;;;;;;;;26.80;93.60;;;;;;5006559;28;19910;-72
2023/09/06 13:23:32;;;;;;;;;;;26.90;93.70;;;;;;5008219;28;19972;-72
2023/09/06 13:25:59;;;;;;;;;;;26.90;93.60;;;;;;5008073;28;19924;-72
2023/09/06 13:28:24;;;;;;;;;;;27.00;93.60;;;;;;5008176;28;19913;-72
2023/09/06 13:30:50;;;;;;;;;;;27.00;93.70;;;;;;5007602;28;20560;-72
2023/09/06 13:33:15;;;;;;;;;;;27.00;93.70;;;;;;5007986;28;20401;-72
2023/09/06 13:35:41;;;;;;;;;;;27.10;93.60;;;;;;5004146;28;19996;-72
2023/09/06 13:38:06;;;;;;;;;;;27.20;93.80;;;;;;5007598;28;20717;-72
2023/09/06 13:40:32;;;;;;;;;;;27.20;93.70;;;;;;5000207;28;19922;-72
2023/09/06 13:42:57;;;;;;;;;;;27.20;93.60;;;;;;4998452;28;19921;-72
2023/09/06 13:45:23;;;;;;;;;;;27.30;93.60;;;;;;5000231;28;19916;-72
2023/09/06 13:47:49;;;;;;;;;;;27.30;93.60;;;;;;5007505;28;19924;-72
2023/09/06 13:50:14;;;;;;;;;;;27.40;93.50;;;;;;5007532;28;20232;-72
2023/09/06 13:52:40;;;;;;;;;;;27.40;93.50;;;;;;5007108;28;20453;-72
2023/09/06 13:55:05;;;;;;;;;;;27.40;93.50;;;;;;5005934;28;19959;-72
2023/09/06 13:57:31;;;;;;;;;;;27.50;93.50;;;;;;5008559;28;19916;-72
2023/09/06 13:59:56;;;;;;;;;;;27.50;93.50;;;;;;5011569;28;20762;-72
2023/09/06 14:02:22;;;;;;;;;;;27.50;93.50;;;;;;5011595;28;20000;-72
2023/09/06 14:04:47;;;;;;;;;;;27.60;93.50;;;;;;5011312;28;19921;-72
2023/09/06 14:07:13;;;;;;;;;;;27.60;93.40;;;;;;5011377;28;20024;-72
2023/09/06 14:09:39;;;;;;;;;;;27.60;93.50;;;;;;5011167;28;20354;-72
2023/09/06 14:12:04;;;;;;;;;;;27.70;93.50;;;;;;5011567;28;19910;-72
2023/09/06 14:14:30;;;;;;;;;;;27.70;93.40;;;;;;5011366;28;19919;-72